createdAt,value
2019-06-26T00:02:00.589Z,28.10
2019-06-26T00:04:30.576Z,28.20
2019-06-26T00:07:01.034Z,28.40
2019-06-26T00:09:31.774Z,28.60
2019-06-26T00:12:02.106Z,28.80
2019-06-26T00:14:32.329Z,29.10
2019-06-26T00:17:02.439Z,29.30
2019-06-26T00:19:32.674Z,29.60
2019-06-26T00:22:03.363Z,29.80
2019-06-26T00:24:33.725Z,30.10
2019-06-26T00:27:04.061Z,30.40
2019-06-26T00:29:34.283Z,30.70
2019-06-26T00:32:04.707Z,30.90
2019-06-26T00:34:34.623Z,31.20
2019-06-26T00:37:04.921Z,31.60
2019-06-26T01:05:43.617Z,35.80
2019-06-26T01:08:54.140Z,36.30
2019-06-26T02:40:18.768Z,39.60
2019-06-26T02:58:25.755Z,42.10
2019-06-26T03:00:56.543Z,42.40
2019-06-26T03:47:53.918Z,42.80
2019-06-26T03:50:24.807Z,42.80
2019-06-26T03:52:55.486Z,42.70
2019-06-26T03:55:25.808Z,42.80
2019-06-26T03:57:56.335Z,42.60
2019-06-26T04:00:27.725Z,42.50
2019-06-26T04:02:58.314Z,42.50
2019-06-26T04:05:28.816Z,42.40
2019-06-26T04:07:59.084Z,42.30
2019-06-26T04:10:29.228Z,42.00
2019-06-26T04:12:59.868Z,41.40
2019-06-26T04:15:41.422Z,40.90
2019-06-26T04:18:02.336Z,40.50
2019-06-26T04:20:32.927Z,40.20
2019-06-26T04:23:03.500Z,39.80
2019-06-26T04:25:33.936Z,39.50
2019-06-26T04:28:06.437Z,39.30
2019-06-26T04:30:36.210Z,39.10
2019-06-26T04:33:06.839Z,39.00
2019-06-26T04:35:37.390Z,38.90
2019-06-26T04:38:07.559Z,38.80
2019-06-26T04:40:38.149Z,38.60
2019-06-26T04:43:08.683Z,38.30
2019-06-26T04:45:39.086Z,38.10
2019-06-26T04:48:09.417Z,38.10
2019-06-26T04:50:39.667Z,38.10
2019-06-26T04:53:10.066Z,38.10
2019-06-26T04:55:40.607Z,38.10
2019-06-26T04:58:11.132Z,38.10
2019-06-26T05:00:41.955Z,38.20
2019-06-26T05:03:12.403Z,38.30
2019-06-26T05:05:44.533Z,38.30
2019-06-26T05:08:14.718Z,38.40
2019-06-26T05:10:45.251Z,38.40
2019-06-26T05:13:15.846Z,38.40
2019-06-26T05:15:46.071Z,38.40
2019-06-26T05:18:16.702Z,38.50
2019-06-26T05:20:46.928Z,38.50
2019-06-26T05:23:17.375Z,38.50
2019-06-26T05:25:47.977Z,38.60
2019-06-26T05:28:18.486Z,38.60
2019-06-26T05:30:48.475Z,38.60
2019-06-26T05:33:19.192Z,38.70
2019-06-26T05:35:49.510Z,38.70
2019-06-26T05:38:19.947Z,38.70
2019-06-26T05:40:50.147Z,38.80
2019-06-26T05:43:20.784Z,38.80
2019-06-26T06:31:21.270Z,37.20
2019-06-26T07:34:27.122Z,37.80
2019-06-26T07:36:57.286Z,37.70
2019-06-26T07:39:27.571Z,37.70
2019-06-26T07:41:57.754Z,37.70
2019-06-26T07:44:28.459Z,37.70
2019-06-26T07:46:58.954Z,37.70
2019-06-26T07:49:29.309Z,37.60
2019-06-26T09:12:26.364Z,37.30
2019-06-26T09:14:56.606Z,37.30
2019-06-26T11:29:50.377Z,34.40
2019-06-26T11:38:56.122Z,34.20
2019-06-26T11:51:43.236Z,33.80
2019-06-26T13:11:13.833Z,32.50
2019-06-26T13:13:44.026Z,32.50
2019-06-26T13:16:14.384Z,32.50
2019-06-26T13:18:45.914Z,32.50
2019-06-26T13:21:16.250Z,32.40
2019-06-26T13:42:58.273Z,32.20
2019-06-26T13:48:37.784Z,32.20
2019-06-26T13:51:09.781Z,32.10
2019-06-26T13:57:01.565Z,32.00
2019-06-26T13:59:31.789Z,31.90
2019-06-26T14:02:02.509Z,31.90
2019-06-26T14:04:32.426Z,31.90
2019-06-26T14:10:12.524Z,31.90
2019-06-26T14:12:42.308Z,31.80
2019-06-26T14:15:12.767Z,31.70
2019-06-26T14:17:42.664Z,31.70
2019-06-26T14:29:55.053Z,31.70
2019-06-26T14:39:11.458Z,31.60
2019-06-26T14:41:41.327Z,31.50
2019-06-26T14:44:11.743Z,31.50
2019-06-26T14:46:41.724Z,31.40
2019-06-26T14:49:11.754Z,31.40
2019-06-26T14:51:47.065Z,31.30
2019-06-26T14:57:25.860Z,31.30
2019-06-26T14:59:53.819Z,31.20
2019-06-26T15:02:23.859Z,31.20
2019-06-26T15:08:02.876Z,31.20
2019-06-26T15:10:33.237Z,31.20
2019-06-26T15:16:01.440Z,31.20
2019-06-26T15:18:31.656Z,31.10
2019-06-26T15:21:03.108Z,31.00
2019-06-26T15:29:53.955Z,31.00
2019-06-26T15:32:24.173Z,31.00
2019-06-26T15:34:54.303Z,31.10
2019-06-26T15:37:24.534Z,31.10
2019-06-26T15:43:03.439Z,31.10
2019-06-26T15:52:14.823Z,31.10
2019-06-26T15:57:47.605Z,31.10
2019-06-26T20:41:36.075Z,28.40
2019-06-26T20:44:05.983Z,28.40
2019-06-26T20:46:35.866Z,28.40
2019-06-26T20:49:05.767Z,28.40
2019-06-26T20:51:35.659Z,28.30
2019-06-26T22:50:24.963Z,27.60
2019-06-26T22:52:54.954Z,27.60
2019-06-26T22:55:24.895Z,27.50
2019-06-26T22:57:55.351Z,27.50
2019-06-26T23:00:25.698Z,27.50
2019-06-26T23:02:55.589Z,27.50
2019-06-26T23:05:25.477Z,27.50
2019-06-26T23:11:05.483Z,27.50
2019-06-26T23:13:35.372Z,27.50
2019-06-26T23:16:05.521Z,27.50
2019-06-26T23:18:35.754Z,27.50
2019-06-26T23:24:15.661Z,27.50
2019-06-26T23:26:45.565Z,27.50
2019-06-26T23:29:15.444Z,27.60
2019-06-26T23:31:45.363Z,27.50
2019-06-26T23:34:15.258Z,27.60
2019-06-26T23:36:45.149Z,27.60
2019-06-26T23:39:15.417Z,27.60
2019-06-26T23:41:45.404Z,27.60
2019-06-26T23:44:15.762Z,27.70
2019-06-26T23:46:46.095Z,27.70
2019-06-26T23:49:16.205Z,27.70
2019-06-26T23:51:46.101Z,27.80
2019-06-26T23:54:16.452Z,27.80
2019-06-26T23:56:46.676Z,27.90
2019-06-26T23:59:16.908Z,27.90
